Lake Saint Louis, Missouri
Current Conditions -  °F | °C
As of 5:54 AM on Sunday 23 Nov 2014 (Local Time) from KSUS Reporting Station
Few Clouds Few Clouds  
Wind Chill: 54°   Ceiling: Unl
Heat Index: 54°   Visibility: 10mi
Dew Point: 46°   Wind: 0mph
Humidity: 75%   Direction: NA
Pressure: 29.72"   Gusts: NA
Location:  38.8°N, 90.79°W
Report Text: KSUS 231154Z 00000KT 10SM FEW120 12/08 A2972 RMK AO2 SLP064 60001 70011 T01220078 10128 20122 56016
Loading
Personal Weather Stations






























Interactive Weather Map New forecast layout! Learn more

10-Day Weather Forecast

Advertisements
Track Severe Weather on mobile